Time;durP1;ratioP1;P1;durP2;ratioP2;P2;SDS_P1;SDS_P2;PMS_P1;PMS_P2;Temp;Humidity;BMP_temperature;BMP_pressure;BME280_temperature;BME280_humidity;BME280_pressure;Samples;Min_cycle;Max_cycle;Signal;HPM_P1;HPM_P2
2022/10/28 00:01:37;;;;;;;41.60;37.60;;;;;;;11.35;77.40;101393.06;108530;1281;21943;-85
2022/10/28 00:04:39;;;;;;;;;;;;;;;;;;;;;
2022/10/28 00:07:30;;;;;;;43.10;38.50;;;;;;;11.27;76.82;101394.48;108599;1279;23575;-83
2022/10/28 00:11:00;;;;;;;;;;;;;;;;;;;;;
2022/10/28 00:13:39;;;;;;;44.70;40.30;;;;;;;11.18;76.86;101383.36;108718;1279;21948;-85
2022/10/28 00:16:26;;;;;;;43.60;39.00;;;;;;;11.23;76.87;101382.55;108294;1283;21943;-86
2022/10/28 00:19:37;;;;;;;46.00;41.10;;;;;;;11.19;77.15;101378.83;108301;1283;21961;-83
2022/10/28 00:22:35;;;;;;;43.10;38.70;;;;;;;11.16;77.32;101374.70;108541;1278;22399;-84
2022/10/28 00:25:28;;;;;;;42.20;37.60;;;;;;;11.16;77.31;101370.01;108103;1285;21975;-84
2022/10/28 00:28:22;;;;;;;42.00;38.00;;;;;;;11.12;77.32;101365.73;108159;1286;23740;-83
2022/10/28 00:31:51;;;;;;;42.20;38.00;;;;;;;11.06;77.38;101363.80;108027;1284;21944;-83
2022/10/28 00:34:31;;;;;;;42.30;37.80;;;;;;;11.01;77.60;101361.14;108242;1280;21949;-82
2022/10/28 00:37:13;;;;;;;43.30;39.00;;;;;;;11.01;77.76;101359.91;108129;1285;21920;-83
2022/10/28 00:39:44;;;;;;;42.50;38.20;;;;;;;11.04;77.79;101353.93;107953;1286;22117;-84
2022/10/28 00:42:33;;;;;;;41.90;37.80;;;;;;;11.02;77.76;101344.02;108503;1278;22704;-86
2022/10/28 00:45:46;;;;;;;43.00;38.80;;;;;;;10.98;77.84;101336.83;109114;1277;22420;-85
2022/10/28 00:48:42;;;;;;;;;;;;;;;;;;;;;
2022/10/28 00:52:06;;;;;;;;;;;;;;;;;;;;;
2022/10/28 00:55:36;;;;;;;43.10;38.50;;;;;;;10.80;78.16;101332.17;108914;1274;23608;-83
2022/10/28 00:58:53;;;;;;;41.60;37.30;;;;;;;10.78;78.32;101333.45;108932;1274;23614;-84
2022/10/28 01:01:57;;;;;;;43.40;38.60;;;;;;;10.78;78.40;101331.35;108927;1274;21974;-86
2022/10/28 01:04:49;;;;;;;41.60;37.40;;;;;;;10.78;78.37;101332.75;108940;1275;22706;-84
2022/10/28 01:07:32;;;;;;;42.00;37.90;;;;;;;10.82;78.38;101336.34;108902;1274;21959;-83
2022/10/28 01:10:24;;;;;;;40.10;35.90;;;;;;;10.85;78.48;101334.49;108928;1274;23726;-85
2022/10/28 01:14:09;;;;;;;;;;;;;;;;;;;;;
2022/10/28 01:18:14;;;;;;;38.70;34.70;;;;;;;10.96;78.54;101340.01;109107;1274;22869;-84
2022/10/28 01:21:12;;;;;;;;;;;;;;;;;;;;;
2022/10/28 01:24:21;;;;;;;;;;;;;;;;;;;;;
2022/10/28 01:28:09;;;;;;;37.80;34.00;;;;;;;11.03;78.19;101335.66;108924;1273;21953;-83
2022/10/28 01:31:18;;;;;;;38.60;35.00;;;;;;;11.05;78.43;101329.86;110302;1269;21925;-85
2022/10/28 01:34:38;;;;;;;40.40;36.10;;;;;;;11.07;78.28;101323.38;109089;1272;23151;-84
2022/10/28 01:38:07;;;;;;;;;;;;;;;;;;;;;
2022/10/28 01:41:45;;;;;;;38.40;34.30;;;;;;;11.01;77.98;101321.40;109050;1272;23685;-84
2022/10/28 01:45:08;;;;;;;39.90;35.70;;;;;;;10.96;78.00;101317.19;109085;1272;23785;-85
2022/10/28 01:48:31;;;;;;;40.40;36.20;;;;;;;10.92;78.13;101313.96;109115;1272;22734;-84
2022/10/28 01:51:40;;;;;;;41.60;37.40;;;;;;;10.93;78.10;101315.33;108677;1272;24300;-83
2022/10/28 01:54:38;;;;;;;38.50;34.40;;;;;;;10.95;78.21;101314.41;108279;1281;22004;-83
2022/10/28 01:57:47;;;;;;;37.60;33.70;;;;;;;10.98;78.25;101310.17;108038;1289;21937;-85
2022/10/28 02:00:50;;;;;;;38.90;34.80;;;;;;;11.00;78.14;101309.23;107964;1285;21943;-84
2022/10/28 02:03:49;;;;;;;43.00;38.40;;;;;;;11.01;78.05;101305.02;108084;1289;23645;-83
2022/10/28 02:06:41;;;;;;;;;;;;;;;;;;;;;
2022/10/28 02:10:08;;;;;;;;;;;;;;;;;;;;;
2022/10/28 02:13:20;;;;;;;39.30;35.50;;;;;;;10.91;77.85;101289.77;108304;1285;23634;-86
2022/10/28 02:16:56;;;;;;;40.50;36.50;;;;;;;10.84;77.98;101284.73;108619;1283;22628;-86
2022/10/28 02:20:41;;;;;;;41.20;36.90;;;;;;;10.79;78.08;101279.46;108199;1285;21967;-84
2022/10/28 02:24:15;;;;;;;40.90;36.80;;;;;;;10.72;78.29;101277.52;108301;1285;21960;-84
2022/10/28 02:27:39;;;;;;;40.40;36.30;;;;;;;10.68;78.38;101279.35;108149;1286;22280;-84
2022/10/28 02:30:25;;;;;;;38.90;34.90;;;;;;;10.67;78.38;101276.08;107888;1285;21972;-84
2022/10/28 02:33:40;;;;;;;37.80;34.00;;;;;;;10.64;78.48;101277.35;108120;1278;21942;-83
2022/10/28 02:36:50;;;;;;;39.40;35.50;;;;;;;10.64;78.53;101279.27;108063;1286;21968;-84
2022/10/28 02:39:46;;;;;;;44.00;36.80;;;;;;;10.69;78.65;101275.85;107964;1285;21943;-84
2022/10/28 02:42:56;;;;;;;38.60;34.80;;;;;;;10.74;78.61;101275.23;107981;1286;24319;-85
2022/10/28 02:45:49;;;;;;;39.30;34.30;;;;;;;10.78;78.66;101276.67;107440;1291;21934;-83
2022/10/28 02:49:24;;;;;;;38.00;34.30;;;;;;;10.82;78.63;101279.73;107737;1288;22338;-84
2022/10/28 02:52:36;;;;;;;36.60;32.70;;;;;;;10.82;78.46;101278.68;107502;1294;21953;-86
2022/10/28 02:55:56;;;;;;;39.10;34.90;;;;;;;10.82;78.42;101273.96;107368;1286;21945;-83
2022/10/28 02:58:42;;;;;;;36.60;33.10;;;;;;;10.84;78.29;101277.73;108046;1286;21958;-77
2022/10/28 03:01:21;;;;;;;37.60;33.80;;;;;;;10.87;78.15;101274.21;107725;1286;23562;-78
2022/10/28 03:04:46;;;;;;;;;;;;;;;;;;;;;
2022/10/28 03:07:57;;;;;;;;;;;;;;;;;;;;;
2022/10/28 03:10:37;;;;;;;40.70;35.20;;;;;;;10.82;77.95;101272.40;107162;1297;21973;-84
2022/10/28 03:13:49;;;;;;;39.20;35.00;;;;;;;10.79;77.75;101272.98;107066;1297;23656;-84
2022/10/28 03:16:34;;;;;;;35.90;32.10;;;;;;;10.77;77.83;101269.04;107190;1297;22867;-84
2022/10/28 03:19:36;;;;;;;40.50;36.30;;;;;;;10.79;77.99;101267.96;107027;1292;22479;-84
2022/10/28 03:22:32;;;;;;;36.60;32.80;;;;;;;10.81;77.95;101268.77;107271;1289;21941;-85
2022/10/28 03:26:04;;;;;;;38.50;34.70;;;;;;;10.79;77.88;101267.08;107963;1285;22039;-84
2022/10/28 03:29:02;;;;;;;37.30;33.80;;;;;;;10.78;77.78;101265.88;108505;1272;21931;-86
2022/10/28 03:32:22;;;;;;;38.20;34.20;;;;;;;10.74;77.87;101260.41;109022;1272;22021;-83
2022/10/28 03:35:19;;;;;;;37.20;33.30;;;;;;;10.79;77.96;101260.13;108954;1270;21987;-86
2022/10/28 03:38:20;;;;;;;39.80;35.60;;;;;;;10.79;77.85;101256.98;108912;1272;21935;-86
2022/10/28 03:41:12;;;;;;;42.90;36.00;;;;;;;10.80;77.85;101252.27;108979;1270;21931;-85
2022/10/28 03:44:14;;;;;;;40.20;36.30;;;;;;;10.76;77.79;101248.87;108985;1272;21931;-85
2022/10/28 03:47:33;;;;;;;38.20;34.10;;;;;;;10.72;77.89;101241.67;109137;1272;22452;-85
2022/10/28 03:50:31;;;;;;;38.70;33.70;;;;;;;10.78;78.04;101253.02;109164;1271;21932;-83
2022/10/28 03:53:53;;;;;;;;;;;;;;;;;;;;;
2022/10/28 03:56:59;;;;;;;39.10;34.50;;;;;;;10.78;77.74;101248.84;108547;1286;21969;-87
2022/10/28 04:00:12;;;;;;;38.50;34.60;;;;;;;10.78;77.63;101251.79;108354;1281;21940;-86
2022/10/28 04:03:00;;;;;;;36.10;32.60;;;;;;;10.79;77.59;101248.27;108638;1285;21977;-87
2022/10/28 04:06:13;;;;;;;;;;;;;;;;;;;;;
2022/10/28 04:09:41;;;;;;;;;;;;;;;;;;;;;
2022/10/28 04:12:27;;;;;;;40.70;36.60;;;;;;;10.77;77.51;101236.67;108917;1279;22457;-85
2022/10/28 04:15:33;;;;;;;;;;;;;;;;;;;;;
2022/10/28 04:18:18;;;;;;;;;;;;;;;;;;;;;
2022/10/28 04:21:10;;;;;;;43.50;37.10;;;;;;;10.61;77.40;101229.73;108691;1291;21988;-87
2022/10/28 04:23:50;;;;;;;38.90;35.20;;;;;;;10.61;77.42;101232.87;108156;1292;21961;-87
2022/10/28 04:26:38;;;;;;;41.20;36.80;;;;;;;10.61;77.56;101232.00;108111;1292;21958;-86
2022/10/28 04:29:37;;;;;;;;;;;;;;;;;;;;;
2022/10/28 04:33:15;;;;;;;42.80;38.40;;;;;;;10.64;77.64;101229.14;108519;1280;22004;-85
2022/10/28 04:36:38;;;;;;;41.50;37.20;;;;;;;10.63;77.61;101229.51;108452;1288;21963;-88
2022/10/28 04:39:58;;;;;;;41.10;37.10;;;;;;;10.59;77.50;101229.96;108456;1283;21950;-86
2022/10/28 04:42:56;;;;;;;42.60;38.40;;;;;;;10.57;77.49;101228.79;108660;1279;21943;-85
2022/10/28 04:46:05;;;;;;;;;;;;;;;;;;;;;
2022/10/28 04:49:14;;;;;;;;;;;;;;;;;;;;;
2022/10/28 04:51:55;;;;;;;;;;;;;;;10.52;77.48;101222.65;109324;1277;21903;-88
2022/10/28 04:55:40;;;;;;;;;;;;;;;;;;;;;
2022/10/28 04:59:17;;;;;;;40.40;36.30;;;;;;;10.44;77.81;101221.08;109410;1277;21928;-88
2022/10/28 05:05:29;;;;;;;45.30;40.80;;;;;;;10.47;77.58;101219.96;109522;1277;23597;-88
2022/10/28 05:08:34;;;;;;;45.30;40.60;;;;;;;10.51;77.63;101223.17;109744;1277;24230;-88
2022/10/28 05:11:41;;;;;;;;;;;;;;;;;;;;;
2022/10/28 05:15:05;;;;;;;45.20;40.20;;;;;;;10.53;77.57;101224.36;108986;1275;22470;-84
2022/10/28 05:18:14;;;;;;;46.50;40.30;;;;;;;10.53;77.29;101224.88;108829;1278;23142;-84
2022/10/28 05:21:41;;;;;;;49.90;42.00;;;;;;;10.45;77.18;101224.02;108784;1279;23122;-84
2022/10/28 05:24:40;;;;;;;45.90;40.50;;;;;;;10.38;77.40;101215.16;108705;1272;21991;-84
2022/10/28 05:27:36;;;;;;;49.10;43.30;;;;;;;10.35;77.50;101218.35;108891;1277;22070;-84
2022/10/28 05:30:41;;;;;;;51.50;44.70;;;;;;;10.35;77.48;101212.79;108855;1266;21965;-86
2022/10/28 05:33:33;;;;;;;;;;;;;;;;;;;;;
2022/10/28 05:37:20;;;;;;;;;;;;;;;;;;;;;
2022/10/28 05:40:07;;;;;;;47.80;42.60;;;;;;;10.25;77.66;101196.98;109173;1270;21963;-87
2022/10/28 05:42:52;;;;;;;45.30;40.70;;;;;;;10.21;77.65;101194.80;108944;1272;23682;-84
2022/10/28 05:45:56;;;;;;;45.10;40.40;;;;;;;10.15;77.80;101190.74;108530;1278;23582;-82
2022/10/28 05:48:40;;;;;;;50.60;44.20;;;;;;;10.12;78.01;101193.26;108183;1283;21977;-82
2022/10/28 05:51:41;;;;;;;44.70;40.10;;;;;;;10.08;78.13;101192.48;108256;1285;21992;-83
2022/10/28 05:54:13;;;;;;;43.10;38.70;;;;;;;10.05;78.23;101193.40;108350;1286;22390;-81
2022/10/28 05:57:01;;;;;;;47.50;42.60;;;;;;;10.07;78.25;101194.94;108298;1286;21961;-83
2022/10/28 05:59:49;;;;;;;;;;;;;;;;;;;;;
2022/10/28 06:02:43;;;;;;;52.20;46.70;;;;;;;10.14;78.58;101208.51;108287;1282;21923;-83
2022/10/28 06:05:44;;;;;;;51.20;46.00;;;;;;;10.22;78.66;101208.70;108713;1278;23188;-82
2022/10/28 06:08:47;;;;;;;56.00;50.10;;;;;;;10.27;78.75;101207.02;108954;1273;21933;-82
2022/10/28 06:11:45;;;;;;;;;;;;;;;;;;;;;
2022/10/28 06:18:32;;;;;;;51.30;46.10;;;;;;;10.28;78.67;101183.67;108780;1275;21972;-82
2022/10/28 06:21:06;;;;;;;47.00;42.10;;;;;;;10.32;78.47;101188.98;108637;1278;21966;-81
2022/10/28 06:24:19;;;;;;;;;;;;;;;;;;;;;
2022/10/28 06:28:03;;;;;;;;;;;;;;;;;;;;;
2022/10/28 06:31:30;;;;;;;46.40;41.30;;;;;;;10.39;78.87;101187.10;107888;1289;21924;-85
2022/10/28 06:34:40;;;;;;;46.70;41.70;;;;;;;10.48;78.96;101189.85;108011;1289;21974;-85
2022/10/28 06:38:20;;;;;;;;;;;;;;;;;;;;;
2022/10/28 06:41:46;;;;;;;48.00;42.90;;;;;;;10.64;79.11;101188.24;108334;1283;23595;-85
2022/10/28 06:45:32;;;;;;;47.00;42.00;;;;;;;10.73;79.27;101192.36;108035;1283;21953;-86
2022/10/28 06:48:46;;;;;;;46.50;41.60;;;;;;;10.86;79.44;101189.43;108533;1283;22262;-86
2022/10/28 06:51:43;;;;;;;46.20;41.10;;;;;;;11.01;79.52;101190.96;108710;1283;21963;-86
2022/10/28 06:55:19;;;;;;;;;;;;;;;;;;;;;
2022/10/28 06:58:05;;;;;;;47.00;41.90;;;;;;;11.29;79.12;101205.19;108701;1278;21937;-86
2022/10/28 07:01:40;;;;;;;46.90;41.80;;;;;;;11.36;79.07;101203.26;108372;1286;22090;-84
2022/10/28 07:05:46;;;;;;;49.40;43.50;;;;;;;11.46;78.93;101205.63;107728;1292;21997;-85
2022/10/28 07:09:43;;;;;;;;;;;;;;;;;;;;;
2022/10/28 07:13:01;;;;;;;44.40;39.50;;;;;;;11.79;79.01;101215.14;107858;1292;21973;-85
2022/10/28 07:16:00;;;;;;;44.30;39.50;;;;;;;11.91;78.70;101217.42;107767;1292;21975;-86
2022/10/28 07:19:06;;;;;;;44.30;39.70;;;;;;;12.04;78.47;101222.11;107875;1289;23731;-84
2022/10/28 07:22:51;;;;;;;;;;;;;;;;;;;;;
2022/10/28 07:25:55;;;;;;;45.00;40.50;;;;;;;12.17;77.84;101221.00;108824;1278;21954;-87
2022/10/28 07:29:43;;;;;;;46.80;41.60;;;;;;;12.22;77.68;101223.47;108826;1277;21949;-81
2022/10/28 07:33:06;;;;;;;;;;;;;;;;;;;;;
2022/10/28 07:36:40;;;;;;;56.20;42.60;;;;;;;12.28;77.36;101222.77;108346;1283;22250;-82
2022/10/28 07:40:01;;;;;;;50.50;43.90;;;;;;;12.26;77.15;101217.60;108250;1283;21947;-80
2022/10/28 07:43:54;;;;;;;;;;;;;;;;;;;;;
2022/10/28 07:47:20;;;;;;;;;;;;;;;;;;;;;
2022/10/28 07:51:46;;;;;;;;;;;;;;;;;;;;;
2022/10/28 07:55:32;;;;;;;;;;;;;;;;;;;;;
2022/10/28 07:59:23;;;;;;;;;;;;;;;;;;;;;
2022/10/28 08:03:07;;;;;;;;;;;;;;;;;;;;;
2022/10/28 08:06:52;;;;;;;;;;;;;;;;;;;;;
2022/10/28 08:11:23;;;;;;;;;;;;;;;;;;;;;
2022/10/28 08:15:22;;;;;;;54.90;50.00;;;;;;;14.19;75.68;101205.11;106376;1301;21972;-82
2022/10/28 08:18:12;;;;;;;58.30;52.70;;;;;;;14.39;75.28;101204.48;107910;1297;22083;-87
2022/10/28 08:22:11;;;;;;;52.00;47.10;;;;;;;14.59;74.55;101204.60;108212;1292;21936;-86
2022/10/28 08:29:39;;;;;;;;;;;;;;;;;;;;;
2022/10/28 08:33:26;;;;;;;38.70;34.40;;;;;;;15.26;72.81;101201.77;107829;1298;22555;-86
2022/10/28 08:40:48;;;;;;;;;;;;;;;;;;;;;
2022/10/28 08:44:37;;;;;;;33.90;30.40;;;;;;;15.64;71.32;101198.16;105301;1318;21986;-80
2022/10/28 08:47:43;;;;;;;14.50;13.20;;;;;;;15.76;70.64;101191.33;104878;1320;23105;-81
2022/10/28 08:51:08;;;;;;;;;;;;;;;;;;;;;
2022/10/28 08:54:19;;;;;;;26.40;23.70;;;;;;;15.94;70.04;101197.70;104994;1318;21989;-79
2022/10/28 08:57:53;;;;;;;;;;;;;;;;;;;;;
2022/10/28 09:01:35;;;;;;;;;;;;;;;;;;;;;
2022/10/28 09:05:29;;;;;;;25.90;23.20;;;;;;;16.12;68.23;101198.08;105282;1315;23478;-79
2022/10/28 09:08:28;;;;;;;29.00;26.00;;;;;;;16.19;68.40;101194.72;105240;1316;23120;-79
2022/10/28 09:11:52;;;;;;;28.70;25.80;;;;;;;16.30;68.40;101195.08;105635;1312;21980;-81
2022/10/28 09:15:03;;;;;;;;;;;;;;;;;;;;;
2022/10/28 09:18:44;;;;;;;;;;;;;;;;;;;;;
2022/10/28 09:22:56;;;;;;;25.00;22.00;;;;;;;16.63;67.40;101202.45;106351;1302;22085;-80
2022/10/28 09:26:18;;;;;;;22.50;20.20;;;;;;;16.74;67.30;101201.02;105828;1309;23623;-80
2022/10/28 09:29:42;;;;;;;22.70;20.40;;;;;;;16.89;67.33;101200.12;105463;1309;23663;-80
2022/10/28 09:33:30;;;;;;;25.00;22.40;;;;;;;17.04;66.86;101200.80;105722;1308;21971;-81
2022/10/28 09:37:34;;;;;;;21.80;19.60;;;;;;;17.09;66.27;101196.47;105976;1309;21986;-80
2022/10/28 09:41:04;;;;;;;;;;;;;;;;;;;;;
2022/10/28 09:44:06;;;;;;;;;;;;;;;;;;;;;
2022/10/28 09:47:47;;;;;;;;;;;;;;;;;;;;;
2022/10/28 09:50:36;;;;;;;;;;;;;;;;;;;;;
2022/10/28 09:53:55;;;;;;;23.20;18.90;;;;;;;17.94;64.66;101194.98;106210;1303;21951;-80
2022/10/28 09:57:14;;;;;;;;;;;;;;;;;;;;;
2022/10/28 10:00:34;;;;;;;25.50;19.40;;;;;;;18.46;64.14;101201.20;106645;1300;23648;-80
2022/10/28 10:04:47;;;;;;;;;;;;;;;;;;;;;
2022/10/28 10:08:51;;;;;;;;;;;;;;;;;;;;;
2022/10/28 10:13:11;;;;;;;18.40;16.40;;;;;;;19.83;61.15;101191.77;107630;1292;23028;-80
2022/10/28 10:16:42;;;;;;;;;;;;;;;;;;;;;
2022/10/28 10:20:13;;;;;;;20.50;16.40;;;;;;;20.54;58.63;101184.03;107225;1291;21922;-80
2022/10/28 10:23:36;;;;;;;;;;;;;;;;;;;;;
2022/10/28 10:27:28;;;;;;;17.70;14.90;;;;;;;21.36;57.85;101182.73;107956;1286;22172;-80
2022/10/28 10:31:42;;;;;;;55.70;49.70;;;;;;;21.73;56.11;101181.69;108006;1285;21965;-79
2022/10/28 10:35:53;;;;;;;17.50;14.50;;;;;;;21.82;54.59;101170.81;107501;1294;21981;-80
2022/10/28 10:39:01;;;;;;;15.10;12.80;;;;;;;22.15;55.82;101163.60;106595;1301;23720;-80
2022/10/28 10:42:10;;;;;;;;;;;;;;;;;;;;;
2022/10/28 10:45:27;;;;;;;14.60;11.40;;;;;;;22.77;53.46;101153.20;106121;1307;22345;-81
2022/10/28 10:48:22;;;;;;;11.80;10.70;;;;;;;22.89;52.34;101152.62;105586;1310;23830;-80
2022/10/28 10:51:41;;;;;;;10.70;8.60;;;;;;;23.06;51.96;101152.77;106416;1301;22758;-80
2022/10/28 10:54:52;;;;;;;;;;;;;;;;;;;;;
2022/10/28 10:57:48;;;;;;;13.50;10.10;;;;;;;23.36;52.51;101138.33;106018;1307;21954;-79
2022/10/28 11:00:30;;;;;;;10.10;8.90;;;;;;;23.38;50.78;101139.36;106100;1303;22006;-81
2022/10/28 11:03:26;;;;;;;14.10;9.80;;;;;;;23.19;50.27;101133.46;106485;1300;21968;-81
2022/10/28 11:05:58;;;;;;;14.30;8.60;;;;;;;22.95;50.33;101131.36;106759;1299;22398;-78
2022/10/28 11:09:48;;;;;;;;;;;;;;;;;;;;;
2022/10/28 11:13:35;;;;;;;11.60;8.90;;;;;;;22.28;50.96;101125.63;107937;1290;21995;-83
2022/10/28 11:17:12;;;;;;;;;;;;;;;;;;;;;
2022/10/28 11:21:04;;;;;;;;;;;;;;;;;;;;;
2022/10/28 11:25:09;;;;;;;12.00;9.20;;;;;;;21.21;53.41;101118.64;108527;1271;22990;-84
2022/10/28 11:29:06;;;;;;;;;;;;;;;;;;;;;
2022/10/28 11:33:43;;;;;;;;;;;;;;;;;;;;;
2022/10/28 11:37:58;;;;;;;;;;;;;;;;;;;;;
2022/10/28 11:41:52;;;;;;;11.20;7.50;;;;;;;20.69;56.07;101113.76;107639;1291;23010;-83
2022/10/28 11:46:00;;;;;;;8.60;7.20;;;;;;;20.72;56.34;101114.60;107420;1292;21974;-83
2022/10/28 11:49:57;;;;;;;11.00;8.50;;;;;;;20.78;56.30;101111.35;106981;1299;22372;-84
2022/10/28 11:54:07;;;;;;;;;;;;;;;;;;;;;
2022/10/28 11:58:32;;;;;;;7.40;5.30;;;;;;;21.00;54.79;101111.63;105933;1310;548658;-79
2022/10/28 12:02:02;;;;;;;12.60;6.50;;;;;;;20.93;54.17;101108.16;107743;1287;22895;-82
2022/10/28 12:05:23;;;;;;;9.70;5.90;;;;;;;20.90;54.21;101103.82;107740;1293;22725;-84
2022/10/28 12:14:17;;;;;;;11.30;5.60;;;;;;;20.75;54.08;101106.23;100604;1285;22019;-83
2022/10/28 12:17:14;;;;;;;10.10;5.80;;;;;;;20.80;54.22;101107.48;108342;1279;23022;-83
2022/10/28 12:20:13;;;;;;;10.40;5.10;;;;;;;20.86;54.03;101106.57;108231;1279;21928;-85
2022/10/28 12:22:50;;;;;;;6.90;5.30;;;;;;;20.87;53.44;101104.02;108290;1280;21943;-82
2022/10/28 12:25:33;;;;;;;10.00;5.70;;;;;;;20.87;53.37;101095.36;108217;1280;22546;-83
2022/10/28 12:28:13;;;;;;;8.50;6.40;;;;;;;20.91;53.43;101092.76;108551;1280;21949;-87
2022/10/28 12:30:42;;;;;;;9.20;4.90;;;;;;;20.95;53.27;101086.51;108491;1274;21926;-81
2022/10/28 12:33:14;;;;;;;9.20;5.10;;;;;;;20.95;52.84;101085.05;108721;1271;22198;-82
2022/10/28 12:35:53;;;;;;;10.30;4.80;;;;;;;20.94;52.80;101081.05;108907;1269;21930;-82
2022/10/28 12:38:43;;;;;;;8.40;4.70;;;;;;;20.96;52.76;101076.70;108783;1272;21962;-81
2022/10/28 12:41:26;;;;;;;7.10;4.40;;;;;;;20.91;52.59;101073.83;108635;1274;22753;-82
2022/10/28 12:44:03;;;;;;;8.20;5.00;;;;;;;20.91;52.74;101075.41;108554;1278;24023;-82
2022/10/28 12:46:47;;;;;;;12.40;5.10;;;;;;;20.92;52.63;101070.94;108522;1278;22799;-83
2022/10/28 12:49:52;;;;;;;10.60;4.90;;;;;;;20.91;52.40;101072.39;108736;1277;21926;-82
2022/10/28 12:52:48;;;;;;;13.30;9.80;;;;;;;20.91;52.46;101067.48;108635;1274;21946;-82
2022/10/28 12:55:29;;;;;;;7.60;5.50;;;;;;;20.91;52.45;101062.18;108595;1277;21961;-81
2022/10/28 12:58:10;;;;;;;;;;;;;;;20.93;52.44;101060.45;108427;1280;21927;-83
2022/10/28 13:00:48;;;;;;;12.70;6.30;;;;;;;20.84;52.66;101055.41;108609;1280;21926;-82
2022/10/28 13:03:15;;;;;;;13.00;6.60;;;;;;;20.85;52.83;101051.08;108760;1278;21988;-81
2022/10/28 13:05:55;;;;;;;9.60;7.50;;;;;;;20.90;53.07;101054.25;108818;1278;21942;-81
2022/10/28 13:08:47;;;;;;;15.00;9.30;;;;;;;20.93;53.42;101055.45;108539;1280;22118;-81
2022/10/28 13:11:18;;;;;;;12.00;8.50;;;;;;;20.91;53.78;101055.10;108748;1278;23720;-81
2022/10/28 13:14:03;;;;;;;21.60;10.00;;;;;;;20.89;54.16;101055.59;108627;1278;21896;-82
2022/10/28 13:17:14;;;;;;;19.20;10.70;;;;;;;20.84;54.55;101058.36;108697;1280;22025;-80
2022/10/28 13:20:07;;;;;;;13.20;10.60;;;;;;;20.79;54.93;101060.84;109165;1273;23061;-81
2022/10/28 13:22:56;;;;;;;14.10;10.20;;;;;;;20.73;55.36;101063.97;109107;1273;21922;-81
2022/10/28 13:25:37;;;;;;;9.70;8.70;;;;;;;20.71;55.63;101062.65;109044;1268;23042;-82
2022/10/28 13:28:06;;;;;;;15.90;9.80;;;;;;;20.69;55.84;101056.77;108826;1278;23024;-82
2022/10/28 13:30:34;;;;;;;15.30;12.00;;;;;;;20.70;55.96;101051.94;108709;1277;23051;-81
2022/10/28 13:33:10;;;;;;;14.90;13.30;;;;;;;20.72;56.05;101042.96;108903;1277;21957;-85
2022/10/28 13:35:38;;;;;;;14.60;9.40;;;;;;;20.76;56.22;101045.34;108675;1281;21933;-82
2022/10/28 13:38:12;;;;;;;13.00;8.90;;;;;;;20.80;56.10;101049.45;108782;1280;21960;-83
2022/10/28 13:40:39;;;;;;;14.50;8.30;;;;;;;20.81;56.00;101055.44;108819;1280;22725;-80
2022/10/28 13:43:39;;;;;;;13.00;9.00;;;;;;;20.80;55.95;101054.10;108840;1280;21931;-83
2022/10/28 13:46:06;;;;;;;9.00;7.80;;;;;;;20.74;55.90;101046.56;109020;1274;21937;-86
2022/10/28 13:48:40;;;;;;;13.40;9.10;;;;;;;20.72;55.99;101050.78;109021;1275;21975;-82
2022/10/28 13:51:07;;;;;;;13.70;8.50;;;;;;;20.73;55.94;101044.35;109291;1275;21952;-83
2022/10/28 13:53:44;;;;;;;10.50;9.00;;;;;;;20.77;56.10;101044.58;109309;1273;23125;-84
2022/10/28 13:56:33;;;;;;;13.90;8.00;;;;;;;20.82;56.08;101050.77;109244;1272;22216;-83
2022/10/28 13:59:13;;;;;;;14.20;9.60;;;;;;;20.81;56.11;101055.05;108984;1272;23083;-85
2022/10/28 14:01:40;;;;;;;10.90;8.40;;;;;;;20.84;56.26;101063.02;109175;1272;23731;-83
2022/10/28 14:04:31;;;;;;;13.20;8.40;;;;;;;20.85;56.17;101069.27;109077;1272;21919;-87
2022/10/28 14:07:04;;;;;;;14.00;9.00;;;;;;;20.80;56.19;101068.79;108795;1280;21979;-79
2022/10/28 14:09:35;;;;;;;13.60;8.60;;;;;;;20.77;56.33;101060.67;108713;1276;23749;-80
2022/10/28 14:12:29;;;;;;;13.60;9.90;;;;;;;20.76;56.47;101053.34;108716;1280;22922;-80
2022/10/28 14:15:39;;;;;;;18.80;14.60;;;;;;;20.71;56.56;101048.16;108575;1281;22108;-79
2022/10/28 14:18:13;;;;;;;16.30;10.10;;;;;;;20.66;56.65;101037.16;108299;1286;22062;-79
2022/10/28 14:21:01;;;;;;;14.70;9.10;;;;;;;20.63;56.60;101033.50;108267;1286;22219;-80
2022/10/28 14:23:29;;;;;;;17.10;10.80;;;;;;;20.63;56.67;101028.01;108088;1280;22451;-82
2022/10/28 14:26:03;;;;;;;12.90;9.50;;;;;;;20.61;56.64;101022.48;108636;1280;21937;-79
2022/10/28 14:28:31;;;;;;;12.40;9.20;;;;;;;20.58;56.65;101022.33;108411;1282;23634;-81
2022/10/28 14:31:11;;;;;;;10.00;8.30;;;;;;;20.54;56.72;101023.14;108496;1280;21943;-84
2022/10/28 14:33:41;;;;;;;12.90;8.80;;;;;;;20.45;56.77;101022.83;108458;1280;21948;-82
2022/10/28 14:36:17;;;;;;;13.60;8.60;;;;;;;20.40;56.93;101024.80;108527;1281;23731;-83
2022/10/28 14:39:19;;;;;;;11.40;9.30;;;;;;;20.34;57.04;101024.47;108317;1286;21941;-81
2022/10/28 14:42:33;;;;;;;11.50;8.80;;;;;;;20.28;57.30;101017.28;108091;1286;22282;-84
2022/10/28 14:45:47;;;;;;;15.20;8.70;;;;;;;20.23;57.50;101009.55;108159;1286;21940;-82
2022/10/28 14:48:39;;;;;;;10.80;7.30;;;;;;;20.19;57.77;101001.87;108138;1286;22436;-83
2022/10/28 14:51:13;;;;;;;12.40;9.40;;;;;;;20.13;57.82;100997.83;107834;1286;22265;-86
2022/10/28 14:53:43;;;;;;;11.00;8.80;;;;;;;20.12;58.04;100997.70;108101;1286;24359;-85
2022/10/28 14:56:20;;;;;;;15.00;9.40;;;;;;;20.06;58.14;100998.65;108499;1272;23080;-84
2022/10/28 14:58:49;;;;;;;14.00;10.00;;;;;;;20.04;58.28;100998.95;108816;1277;23680;-84
2022/10/28 15:01:16;;;;;;;17.00;11.30;;;;;;;20.01;58.19;101008.02;108919;1275;21928;-86
2022/10/28 15:04:11;;;;;;;12.00;9.60;;;;;;;19.95;58.31;101012.80;109260;1274;22048;-85
2022/10/28 15:06:45;;;;;;;12.80;9.30;;;;;;;19.87;58.44;101012.25;108913;1277;21963;-85
2022/10/28 15:09:21;;;;;;;13.10;9.50;;;;;;;19.84;58.60;101014.61;109082;1273;21924;-85
2022/10/28 15:12:10;;;;;;;18.40;13.10;;;;;;;19.78;58.78;101014.30;109055;1272;21931;-85
2022/10/28 15:14:51;;;;;;;26.80;17.00;;;;;;;19.73;58.91;101018.69;109201;1275;21895;-87
2022/10/28 15:17:20;;;;;;;21.40;19.30;;;;;;;19.68;59.08;101015.99;109254;1274;22166;-86
2022/10/28 15:19:52;;;;;;;23.60;20.70;;;;;;;19.61;59.23;101008.84;109330;1272;22285;-87
2022/10/28 15:22:27;;;;;;;22.40;19.80;;;;;;;19.58;59.31;101007.23;109139;1274;21944;-84
2022/10/28 15:25:17;;;;;;;27.90;20.40;;;;;;;19.56;59.49;101006.14;109114;1275;21922;-86
2022/10/28 15:27:49;;;;;;;19.80;16.20;;;;;;;19.51;59.52;100999.77;109027;1272;23109;-81
2022/10/28 15:30:24;;;;;;;18.00;16.20;;;;;;;19.46;59.68;101000.98;109128;1272;22411;-81
2022/10/28 15:33:13;;;;;;;16.60;14.40;;;;;;;19.40;59.83;100998.35;108991;1274;21986;-78
2022/10/28 15:35:41;;;;;;;20.30;15.10;;;;;;;19.35;59.92;100989.48;108920;1274;21932;-79
2022/10/28 15:38:26;;;;;;;19.10;14.80;;;;;;;19.31;60.03;100989.59;109031;1272;21938;-80
2022/10/28 15:40:54;;;;;;;19.70;13.80;;;;;;;19.21;60.18;100988.95;108972;1266;23075;-79
2022/10/28 15:43:28;;;;;;;18.60;13.70;;;;;;;19.17;60.30;100994.00;108870;1275;23589;-80
2022/10/28 15:46:15;;;;;;;23.90;20.80;;;;;;;19.14;60.41;100994.73;108931;1272;21938;-79
2022/10/28 15:48:43;;;;;;;32.90;29.70;;;;;;;19.07;60.50;100983.58;109012;1266;21920;-80
2022/10/28 15:51:16;;;;;;;35.80;32.30;;;;;;;19.01;60.61;100982.19;108905;1272;21939;-79
2022/10/28 15:53:55;;;;;;;36.50;32.80;;;;;;;18.96;60.87;100984.61;109184;1272;24329;-81
2022/10/28 15:56:25;;;;;;;33.50;30.20;;;;;;;18.93;61.06;100988.63;108906;1272;21932;-78
2022/10/28 15:59:23;;;;;;;32.10;29.00;;;;;;;18.92;61.03;100985.55;108959;1271;21946;-79
2022/10/28 16:07:07;;;;;;;25.60;18.70;;;;;;;18.62;61.55;100982.42;108942;1272;24270;-80
2022/10/28 16:09:43;;;;;;;21.10;15.40;;;;;;;18.56;61.73;100981.02;108901;1272;21929;-81
2022/10/28 16:12:21;;;;;;;18.00;11.80;;;;;;;18.54;61.82;100979.06;108686;1272;23007;-80
2022/10/28 16:14:56;;;;;;;20.50;12.60;;;;;;;18.48;61.90;100984.35;108740;1269;21908;-79
2022/10/28 16:17:28;;;;;;;22.70;13.60;;;;;;;18.43;62.09;100992.21;108933;1272;21939;-79
2022/10/28 16:20:18;;;;;;;17.70;13.00;;;;;;;18.39;62.26;100992.66;108628;1275;23589;-79